sensor_id;sensor_type;location;lat;lon;timestamp;P1;durP1;ratioP1;P2;durP2;ratioP2
12681;SDS011;6405;59.208;18.216;2023-04-24T00:02:07;9.53;;;5.67;;
12681;SDS011;6405;59.208;18.216;2023-04-24T00:04:36;6.13;;;5.17;;
12681;SDS011;6405;59.208;18.216;2023-04-24T00:07:05;9.33;;;5.93;;
12681;SDS011;6405;59.208;18.216;2023-04-24T00:09:32;8.93;;;6.00;;
12681;SDS011;6405;59.208;18.216;2023-04-24T00:12:00;11.73;;;5.77;;
12681;SDS011;6405;59.208;18.216;2023-04-24T00:14:28;9.93;;;6.13;;
12681;SDS011;6405;59.208;18.216;2023-04-24T00:16:54;8.30;;;6.03;;
12681;SDS011;6405;59.208;18.216;2023-04-24T00:19:20;10.33;;;6.30;;
12681;SDS011;6405;59.208;18.216;2023-04-24T00:21:46;9.90;;;6.03;;
12681;SDS011;6405;59.208;18.216;2023-04-24T00:24:15;7.73;;;5.77;;
12681;SDS011;6405;59.208;18.216;2023-04-24T00:26:41;8.03;;;5.77;;
12681;SDS011;6405;59.208;18.216;2023-04-24T00:29:06;10.23;;;6.23;;
12681;SDS011;6405;59.208;18.216;2023-04-24T00:31:32;11.00;;;7.20;;
12681;SDS011;6405;59.208;18.216;2023-04-24T00:34:01;10.57;;;6.77;;
12681;SDS011;6405;59.208;18.216;2023-04-24T00:36:27;11.07;;;7.07;;
12681;SDS011;6405;59.208;18.216;2023-04-24T00:38:53;11.43;;;6.70;;
12681;SDS011;6405;59.208;18.216;2023-04-24T00:41:19;11.10;;;6.60;;
12681;SDS011;6405;59.208;18.216;2023-04-24T00:43:46;12.40;;;7.10;;
12681;SDS011;6405;59.208;18.216;2023-04-24T00:46:12;8.47;;;6.53;;
12681;SDS011;6405;59.208;18.216;2023-04-24T00:48:40;9.47;;;6.43;;
12681;SDS011;6405;59.208;18.216;2023-04-24T00:51:06;10.67;;;6.87;;
12681;SDS011;6405;59.208;18.216;2023-04-24T00:53:32;9.33;;;6.53;;
12681;SDS011;6405;59.208;18.216;2023-04-24T00:55:58;10.00;;;6.97;;
12681;SDS011;6405;59.208;18.216;2023-04-24T00:58:25;11.87;;;7.07;;
12681;SDS011;6405;59.208;18.216;2023-04-24T01:00:51;11.70;;;6.70;;
12681;SDS011;6405;59.208;18.216;2023-04-24T01:03:22;12.80;;;8.43;;
12681;SDS011;6405;59.208;18.216;2023-04-24T01:05:51;10.93;;;7.53;;
12681;SDS011;6405;59.208;18.216;2023-04-24T01:08:19;11.83;;;7.83;;
12681;SDS011;6405;59.208;18.216;2023-04-24T01:10:47;12.70;;;7.73;;
12681;SDS011;6405;59.208;18.216;2023-04-24T01:13:14;12.53;;;8.13;;
12681;SDS011;6405;59.208;18.216;2023-04-24T01:15:40;14.57;;;9.23;;
12681;SDS011;6405;59.208;18.216;2023-04-24T01:18:06;14.87;;;8.87;;
12681;SDS011;6405;59.208;18.216;2023-04-24T01:20:31;14.93;;;8.03;;
12681;SDS011;6405;59.208;18.216;2023-04-24T01:22:58;10.70;;;6.23;;
12681;SDS011;6405;59.208;18.216;2023-04-24T01:25:25;13.23;;;8.83;;
12681;SDS011;6405;59.208;18.216;2023-04-24T01:27:54;14.17;;;9.03;;
12681;SDS011;6405;59.208;18.216;2023-04-24T01:30:20;15.20;;;9.07;;
12681;SDS011;6405;59.208;18.216;2023-04-24T01:32:45;13.03;;;8.97;;
12681;SDS011;6405;59.208;18.216;2023-04-24T01:35:11;15.50;;;7.27;;
12681;SDS011;6405;59.208;18.216;2023-04-24T01:37:37;17.10;;;9.10;;
12681;SDS011;6405;59.208;18.216;2023-04-24T01:40:04;14.63;;;8.30;;
12681;SDS011;6405;59.208;18.216;2023-04-24T01:42:31;12.63;;;7.93;;
12681;SDS011;6405;59.208;18.216;2023-04-24T01:44:57;13.20;;;8.13;;
12681;SDS011;6405;59.208;18.216;2023-04-24T01:47:24;13.13;;;8.43;;
12681;SDS011;6405;59.208;18.216;2023-04-24T01:49:50;14.57;;;8.27;;
12681;SDS011;6405;59.208;18.216;2023-04-24T01:52:16;14.00;;;8.10;;
12681;SDS011;6405;59.208;18.216;2023-04-24T01:54:43;15.07;;;8.07;;
12681;SDS011;6405;59.208;18.216;2023-04-24T01:57:09;14.47;;;7.73;;
12681;SDS011;6405;59.208;18.216;2023-04-24T01:59:35;12.60;;;7.67;;
12681;SDS011;6405;59.208;18.216;2023-04-24T02:02:02;12.63;;;8.27;;
12681;SDS011;6405;59.208;18.216;2023-04-24T02:04:27;11.63;;;7.37;;
12681;SDS011;6405;59.208;18.216;2023-04-24T02:06:53;12.60;;;7.40;;
12681;SDS011;6405;59.208;18.216;2023-04-24T02:09:19;13.63;;;7.27;;
12681;SDS011;6405;59.208;18.216;2023-04-24T02:11:45;13.60;;;7.90;;
12681;SDS011;6405;59.208;18.216;2023-04-24T02:14:10;12.67;;;7.37;;
12681;SDS011;6405;59.208;18.216;2023-04-24T02:16:36;12.83;;;6.90;;
12681;SDS011;6405;59.208;18.216;2023-04-24T02:19:02;17.47;;;7.50;;
12681;SDS011;6405;59.208;18.216;2023-04-24T02:21:28;14.73;;;7.33;;
12681;SDS011;6405;59.208;18.216;2023-04-24T02:23:54;12.57;;;6.97;;
12681;SDS011;6405;59.208;18.216;2023-04-24T02:26:19;11.57;;;7.13;;
12681;SDS011;6405;59.208;18.216;2023-04-24T02:28:45;13.57;;;6.77;;
12681;SDS011;6405;59.208;18.216;2023-04-24T02:31:11;11.80;;;6.57;;
12681;SDS011;6405;59.208;18.216;2023-04-24T02:33:36;11.43;;;6.23;;
12681;SDS011;6405;59.208;18.216;2023-04-24T02:36:02;13.60;;;6.93;;
12681;SDS011;6405;59.208;18.216;2023-04-24T02:38:28;14.03;;;6.37;;
12681;SDS011;6405;59.208;18.216;2023-04-24T02:40:54;15.30;;;6.33;;
12681;SDS011;6405;59.208;18.216;2023-04-24T02:43:20;13.20;;;6.23;;
12681;SDS011;6405;59.208;18.216;2023-04-24T02:45:46;12.93;;;6.53;;
12681;SDS011;6405;59.208;18.216;2023-04-24T02:48:11;12.47;;;6.20;;
12681;SDS011;6405;59.208;18.216;2023-04-24T02:50:37;13.63;;;6.40;;
12681;SDS011;6405;59.208;18.216;2023-04-24T02:53:02;16.27;;;6.80;;
12681;SDS011;6405;59.208;18.216;2023-04-24T02:55:28;15.23;;;7.40;;
12681;SDS011;6405;59.208;18.216;2023-04-24T02:57:54;14.53;;;6.97;;
12681;SDS011;6405;59.208;18.216;2023-04-24T03:00:20;14.00;;;6.37;;
12681;SDS011;6405;59.208;18.216;2023-04-24T03:02:46;20.27;;;6.43;;
12681;SDS011;6405;59.208;18.216;2023-04-24T03:05:11;14.50;;;7.40;;
12681;SDS011;6405;59.208;18.216;2023-04-24T03:07:37;17.97;;;7.07;;
12681;SDS011;6405;59.208;18.216;2023-04-24T03:10:03;12.93;;;6.67;;
12681;SDS011;6405;59.208;18.216;2023-04-24T03:12:30;13.03;;;6.57;;
12681;SDS011;6405;59.208;18.216;2023-04-24T03:14:56;18.10;;;6.60;;
12681;SDS011;6405;59.208;18.216;2023-04-24T03:17:22;17.57;;;7.40;;
12681;SDS011;6405;59.208;18.216;2023-04-24T03:19:47;16.03;;;7.17;;
12681;SDS011;6405;59.208;18.216;2023-04-24T03:22:13;18.70;;;6.70;;
12681;SDS011;6405;59.208;18.216;2023-04-24T03:24:39;18.57;;;7.47;;
12681;SDS011;6405;59.208;18.216;2023-04-24T03:27:05;17.67;;;7.03;;
12681;SDS011;6405;59.208;18.216;2023-04-24T03:29:30;19.57;;;6.90;;
12681;SDS011;6405;59.208;18.216;2023-04-24T03:31:56;18.37;;;7.30;;
12681;SDS011;6405;59.208;18.216;2023-04-24T03:34:22;17.53;;;7.27;;
12681;SDS011;6405;59.208;18.216;2023-04-24T03:36:47;21.23;;;7.70;;
12681;SDS011;6405;59.208;18.216;2023-04-24T03:39:13;21.20;;;7.30;;
12681;SDS011;6405;59.208;18.216;2023-04-24T03:41:39;17.80;;;7.30;;
12681;SDS011;6405;59.208;18.216;2023-04-24T03:44:05;21.77;;;8.33;;
12681;SDS011;6405;59.208;18.216;2023-04-24T03:46:30;21.57;;;7.83;;
12681;SDS011;6405;59.208;18.216;2023-04-24T03:48:56;15.27;;;7.80;;
12681;SDS011;6405;59.208;18.216;2023-04-24T03:51:21;20.53;;;7.47;;
12681;SDS011;6405;59.208;18.216;2023-04-24T03:53:48;18.13;;;7.83;;
12681;SDS011;6405;59.208;18.216;2023-04-24T03:56:14;18.87;;;7.90;;
12681;SDS011;6405;59.208;18.216;2023-04-24T03:58:41;12.80;;;6.40;;
12681;SDS011;6405;59.208;18.216;2023-04-24T04:01:07;14.27;;;6.67;;
12681;SDS011;6405;59.208;18.216;2023-04-24T04:03:33;13.73;;;6.37;;
12681;SDS011;6405;59.208;18.216;2023-04-24T04:05:59;13.47;;;5.93;;
12681;SDS011;6405;59.208;18.216;2023-04-24T04:08:25;9.07;;;5.57;;
12681;SDS011;6405;59.208;18.216;2023-04-24T04:10:51;8.77;;;4.60;;
12681;SDS011;6405;59.208;18.216;2023-04-24T04:13:16;12.43;;;5.77;;
12681;SDS011;6405;59.208;18.216;2023-04-24T04:15:42;11.83;;;4.53;;
12681;SDS011;6405;59.208;18.216;2023-04-24T04:18:08;10.67;;;4.77;;
12681;SDS011;6405;59.208;18.216;2023-04-24T04:20:34;10.27;;;4.80;;
12681;SDS011;6405;59.208;18.216;2023-04-24T04:22:59;12.20;;;4.70;;
12681;SDS011;6405;59.208;18.216;2023-04-24T04:25:25;11.43;;;5.07;;
12681;SDS011;6405;59.208;18.216;2023-04-24T04:27:51;10.67;;;5.17;;
12681;SDS011;6405;59.208;18.216;2023-04-24T04:30:17;12.17;;;6.23;;
12681;SDS011;6405;59.208;18.216;2023-04-24T04:32:43;12.87;;;6.00;;
12681;SDS011;6405;59.208;18.216;2023-04-24T04:35:09;14.90;;;5.93;;
12681;SDS011;6405;59.208;18.216;2023-04-24T04:37:35;14.50;;;5.83;;
12681;SDS011;6405;59.208;18.216;2023-04-24T04:40:01;14.73;;;5.70;;
12681;SDS011;6405;59.208;18.216;2023-04-24T04:42:31;13.97;;;6.20;;
12681;SDS011;6405;59.208;18.216;2023-04-24T04:44:59;13.67;;;6.00;;
12681;SDS011;6405;59.208;18.216;2023-04-24T04:47:25;13.83;;;5.63;;
12681;SDS011;6405;59.208;18.216;2023-04-24T04:49:52;14.70;;;5.73;;
12681;SDS011;6405;59.208;18.216;2023-04-24T04:52:18;15.90;;;6.77;;
12681;SDS011;6405;59.208;18.216;2023-04-24T04:54:44;17.07;;;6.20;;
12681;SDS011;6405;59.208;18.216;2023-04-24T04:57:10;16.00;;;6.13;;
12681;SDS011;6405;59.208;18.216;2023-04-24T04:59:35;12.23;;;5.67;;
12681;SDS011;6405;59.208;18.216;2023-04-24T05:02:02;15.50;;;6.53;;
12681;SDS011;6405;59.208;18.216;2023-04-24T05:04:27;9.60;;;4.60;;
12681;SDS011;6405;59.208;18.216;2023-04-24T05:06:53;14.47;;;6.07;;
12681;SDS011;6405;59.208;18.216;2023-04-24T05:09:19;14.43;;;5.83;;
12681;SDS011;6405;59.208;18.216;2023-04-24T05:11:44;18.73;;;6.83;;
12681;SDS011;6405;59.208;18.216;2023-04-24T05:14:10;14.67;;;5.80;;
12681;SDS011;6405;59.208;18.216;2023-04-24T05:16:37;15.87;;;7.17;;
12681;SDS011;6405;59.208;18.216;2023-04-24T05:19:04;19.87;;;7.00;;
12681;SDS011;6405;59.208;18.216;2023-04-24T05:21:30;14.27;;;7.27;;
12681;SDS011;6405;59.208;18.216;2023-04-24T05:23:56;14.60;;;8.40;;
12681;SDS011;6405;59.208;18.216;2023-04-24T05:26:21;15.53;;;7.47;;
12681;SDS011;6405;59.208;18.216;2023-04-24T05:28:48;13.10;;;6.17;;
12681;SDS011;6405;59.208;18.216;2023-04-24T05:31:13;14.17;;;6.53;;
12681;SDS011;6405;59.208;18.216;2023-04-24T05:33:39;11.00;;;6.33;;
12681;SDS011;6405;59.208;18.216;2023-04-24T05:36:05;12.83;;;6.10;;
12681;SDS011;6405;59.208;18.216;2023-04-24T05:38:31;9.87;;;5.90;;
12681;SDS011;6405;59.208;18.216;2023-04-24T05:40:57;11.77;;;5.47;;
12681;SDS011;6405;59.208;18.216;2023-04-24T05:43:22;12.53;;;5.33;;
12681;SDS011;6405;59.208;18.216;2023-04-24T05:45:48;12.20;;;5.60;;
12681;SDS011;6405;59.208;18.216;2023-04-24T05:48:14;12.77;;;5.33;;
12681;SDS011;6405;59.208;18.216;2023-04-24T05:50:40;10.63;;;5.07;;
12681;SDS011;6405;59.208;18.216;2023-04-24T05:53:06;9.47;;;5.67;;
12681;SDS011;6405;59.208;18.216;2023-04-24T05:55:32;14.77;;;5.80;;
12681;SDS011;6405;59.208;18.216;2023-04-24T05:57:58;11.27;;;5.50;;
12681;SDS011;6405;59.208;18.216;2023-04-24T06:00:24;13.67;;;5.63;;
12681;SDS011;6405;59.208;18.216;2023-04-24T06:02:50;14.93;;;6.23;;
12681;SDS011;6405;59.208;18.216;2023-04-24T06:05:16;14.87;;;6.33;;
12681;SDS011;6405;59.208;18.216;2023-04-24T06:07:42;15.13;;;7.37;;
12681;SDS011;6405;59.208;18.216;2023-04-24T06:10:08;14.17;;;7.57;;
12681;SDS011;6405;59.208;18.216;2023-04-24T06:12:34;12.40;;;7.13;;
12681;SDS011;6405;59.208;18.216;2023-04-24T06:15:00;13.50;;;7.07;;
12681;SDS011;6405;59.208;18.216;2023-04-24T06:17:26;10.20;;;5.60;;
12681;SDS011;6405;59.208;18.216;2023-04-24T06:19:52;11.77;;;6.30;;
12681;SDS011;6405;59.208;18.216;2023-04-24T06:22:18;12.10;;;5.73;;
12681;SDS011;6405;59.208;18.216;2023-04-24T06:24:43;8.53;;;4.97;;
12681;SDS011;6405;59.208;18.216;2023-04-24T06:27:09;8.50;;;5.00;;
12681;SDS011;6405;59.208;18.216;2023-04-24T06:29:35;11.47;;;6.00;;
12681;SDS011;6405;59.208;18.216;2023-04-24T06:32:01;10.53;;;5.50;;
12681;SDS011;6405;59.208;18.216;2023-04-24T06:34:27;12.20;;;6.67;;
12681;SDS011;6405;59.208;18.216;2023-04-24T06:36:53;8.83;;;5.03;;
12681;SDS011;6405;59.208;18.216;2023-04-24T06:39:20;8.40;;;5.07;;
12681;SDS011;6405;59.208;18.216;2023-04-24T06:41:45;9.67;;;4.47;;
12681;SDS011;6405;59.208;18.216;2023-04-24T06:44:11;9.10;;;4.80;;
12681;SDS011;6405;59.208;18.216;2023-04-24T06:46:37;8.80;;;4.83;;
12681;SDS011;6405;59.208;18.216;2023-04-24T06:49:02;8.80;;;4.43;;
12681;SDS011;6405;59.208;18.216;2023-04-24T06:51:28;6.63;;;3.60;;
12681;SDS011;6405;59.208;18.216;2023-04-24T06:53:54;5.93;;;3.37;;
12681;SDS011;6405;59.208;18.216;2023-04-24T06:56:21;6.80;;;2.93;;
12681;SDS011;6405;59.208;18.216;2023-04-24T06:58:47;5.43;;;2.60;;
12681;SDS011;6405;59.208;18.216;2023-04-24T07:01:13;5.87;;;2.90;;
12681;SDS011;6405;59.208;18.216;2023-04-24T07:03:38;5.30;;;2.73;;
12681;SDS011;6405;59.208;18.216;2023-04-24T07:06:04;6.13;;;2.97;;
12681;SDS011;6405;59.208;18.216;2023-04-24T07:08:30;5.63;;;3.00;;
12681;SDS011;6405;59.208;18.216;2023-04-24T07:10:56;6.03;;;2.70;;
12681;SDS011;6405;59.208;18.216;2023-04-24T07:13:22;5.90;;;2.77;;
12681;SDS011;6405;59.208;18.216;2023-04-24T07:15:49;5.63;;;2.60;;
12681;SDS011;6405;59.208;18.216;2023-04-24T07:18:19;6.20;;;3.20;;
12681;SDS011;6405;59.208;18.216;2023-04-24T07:20:45;4.97;;;2.47;;
12681;SDS011;6405;59.208;18.216;2023-04-24T07:23:11;5.30;;;2.60;;
12681;SDS011;6405;59.208;18.216;2023-04-24T07:25:38;5.47;;;2.47;;
12681;SDS011;6405;59.208;18.216;2023-04-24T07:28:04;7.80;;;2.77;;
12681;SDS011;6405;59.208;18.216;2023-04-24T07:30:30;4.70;;;2.27;;
12681;SDS011;6405;59.208;18.216;2023-04-24T07:32:57;3.93;;;2.00;;
12681;SDS011;6405;59.208;18.216;2023-04-24T07:35:24;5.37;;;2.70;;
12681;SDS011;6405;59.208;18.216;2023-04-24T07:37:51;4.17;;;2.30;;
12681;SDS011;6405;59.208;18.216;2023-04-24T07:40:17;4.27;;;2.50;;
12681;SDS011;6405;59.208;18.216;2023-04-24T07:42:43;4.40;;;2.50;;
12681;SDS011;6405;59.208;18.216;2023-04-24T07:45:09;4.47;;;2.00;;
12681;SDS011;6405;59.208;18.216;2023-04-24T07:47:35;3.57;;;1.97;;
12681;SDS011;6405;59.208;18.216;2023-04-24T07:50:02;3.10;;;2.07;;
12681;SDS011;6405;59.208;18.216;2023-04-24T07:52:29;4.20;;;2.07;;
12681;SDS011;6405;59.208;18.216;2023-04-24T07:54:55;4.03;;;1.90;;
12681;SDS011;6405;59.208;18.216;2023-04-24T07:57:24;3.20;;;1.50;;
12681;SDS011;6405;59.208;18.216;2023-04-24T07:59:50;2.67;;;1.60;;
12681;SDS011;6405;59.208;18.216;2023-04-24T08:02:16;4.10;;;1.70;;
12681;SDS011;6405;59.208;18.216;2023-04-24T08:04:41;2.57;;;1.30;;
12681;SDS011;6405;59.208;18.216;2023-04-24T08:07:07;4.03;;;1.93;;
12681;SDS011;6405;59.208;18.216;2023-04-24T08:09:33;2.20;;;1.10;;
12681;SDS011;6405;59.208;18.216;2023-04-24T08:11:59;2.97;;;1.30;;
12681;SDS011;6405;59.208;18.216;2023-04-24T08:14:24;3.03;;;1.50;;
12681;SDS011;6405;59.208;18.216;2023-04-24T08:16:50;1.87;;;1.20;;
12681;SDS011;6405;59.208;18.216;2023-04-24T08:19:17;2.60;;;1.03;;
12681;SDS011;6405;59.208;18.216;2023-04-24T08:21:43;1.97;;;1.17;;
12681;SDS011;6405;59.208;18.216;2023-04-24T08:24:08;2.77;;;1.43;;
12681;SDS011;6405;59.208;18.216;2023-04-24T08:26:34;1.23;;;0.80;;
12681;SDS011;6405;59.208;18.216;2023-04-24T08:29:00;1.23;;;0.93;;
12681;SDS011;6405;59.208;18.216;2023-04-24T08:31:26;1.90;;;1.07;;
12681;SDS011;6405;59.208;18.216;2023-04-24T08:33:51;1.87;;;1.10;;
12681;SDS011;6405;59.208;18.216;2023-04-24T08:36:17;2.00;;;1.00;;
12681;SDS011;6405;59.208;18.216;2023-04-24T08:38:43;1.30;;;0.80;;
12681;SDS011;6405;59.208;18.216;2023-04-24T08:41:08;1.83;;;1.20;;
12681;SDS011;6405;59.208;18.216;2023-04-24T08:43:34;1.27;;;0.90;;
12681;SDS011;6405;59.208;18.216;2023-04-24T08:46:03;2.00;;;1.10;;
12681;SDS011;6405;59.208;18.216;2023-04-24T08:48:29;1.47;;;0.97;;
12681;SDS011;6405;59.208;18.216;2023-04-24T08:50:56;1.10;;;0.80;;
12681;SDS011;6405;59.208;18.216;2023-04-24T08:53:22;1.00;;;0.80;;
12681;SDS011;6405;59.208;18.216;2023-04-24T08:55:50;1.17;;;0.77;;
12681;SDS011;6405;59.208;18.216;2023-04-24T08:58:19;2.37;;;0.87;;
12681;SDS011;6405;59.208;18.216;2023-04-24T09:00:44;0.93;;;0.70;;
12681;SDS011;6405;59.208;18.216;2023-04-24T09:03:15;1.43;;;1.00;;
12681;SDS011;6405;59.208;18.216;2023-04-24T09:05:42;0.90;;;0.80;;
12681;SDS011;6405;59.208;18.216;2023-04-24T09:08:10;1.47;;;0.97;;
12681;SDS011;6405;59.208;18.216;2023-04-24T09:10:38;1.63;;;0.70;;
12681;SDS011;6405;59.208;18.216;2023-04-24T09:13:05;1.40;;;0.80;;
12681;SDS011;6405;59.208;18.216;2023-04-24T09:15:31;1.67;;;0.90;;
12681;SDS011;6405;59.208;18.216;2023-04-24T09:17:57;1.60;;;1.00;;
12681;SDS011;6405;59.208;18.216;2023-04-24T09:20:23;3.17;;;0.97;;
12681;SDS011;6405;59.208;18.216;2023-04-24T09:22:48;1.20;;;1.00;;
12681;SDS011;6405;59.208;18.216;2023-04-24T09:25:20;0.97;;;0.67;;
12681;SDS011;6405;59.208;18.216;2023-04-24T09:27:46;1.00;;;0.60;;
12681;SDS011;6405;59.208;18.216;2023-04-24T09:30:12;0.80;;;0.80;;
12681;SDS011;6405;59.208;18.216;2023-04-24T09:32:38;2.30;;;1.03;;
12681;SDS011;6405;59.208;18.216;2023-04-24T09:35:05;0.60;;;0.53;;
12681;SDS011;6405;59.208;18.216;2023-04-24T09:37:40;0.77;;;0.77;;
12681;SDS011;6405;59.208;18.216;2023-04-24T09:40:17;0.90;;;0.90;;
12681;SDS011;6405;59.208;18.216;2023-04-24T09:42:54;1.17;;;0.70;;
12681;SDS011;6405;59.208;18.216;2023-04-24T09:45:35;2.60;;;1.10;;
12681;SDS011;6405;59.208;18.216;2023-04-24T09:48:01;1.07;;;0.90;;
12681;SDS011;6405;59.208;18.216;2023-04-24T09:50:29;0.63;;;0.63;;
12681;SDS011;6405;59.208;18.216;2023-04-24T09:53:01;1.53;;;1.13;;
12681;SDS011;6405;59.208;18.216;2023-04-24T09:55:27;1.07;;;0.90;;
12681;SDS011;6405;59.208;18.216;2023-04-24T09:57:55;2.00;;;1.00;;
12681;SDS011;6405;59.208;18.216;2023-04-24T10:02:55;1.10;;;0.90;;
12681;SDS011;6405;59.208;18.216;2023-04-24T10:05:27;0.90;;;0.87;;
12681;SDS011;6405;59.208;18.216;2023-04-24T10:08:00;1.27;;;0.97;;
12681;SDS011;6405;59.208;18.216;2023-04-24T10:10:26;1.00;;;0.90;;
12681;SDS011;6405;59.208;18.216;2023-04-24T10:12:52;1.37;;;1.20;;
12681;SDS011;6405;59.208;18.216;2023-04-24T10:15:19;1.50;;;0.90;;
12681;SDS011;6405;59.208;18.216;2023-04-24T10:17:49;1.20;;;0.97;;
12681;SDS011;6405;59.208;18.216;2023-04-24T10:20:23;3.20;;;1.67;;
12681;SDS011;6405;59.208;18.216;2023-04-24T10:22:55;1.60;;;1.50;;
12681;SDS011;6405;59.208;18.216;2023-04-24T10:25:26;1.43;;;1.30;;
12681;SDS011;6405;59.208;18.216;2023-04-24T10:27:54;3.10;;;1.50;;
12681;SDS011;6405;59.208;18.216;2023-04-24T10:30:23;2.03;;;1.50;;
12681;SDS011;6405;59.208;18.216;2023-04-24T10:32:49;1.83;;;1.40;;
12681;SDS011;6405;59.208;18.216;2023-04-24T10:35:15;1.50;;;1.40;;
12681;SDS011;6405;59.208;18.216;2023-04-24T10:37:46;2.40;;;1.60;;
12681;SDS011;6405;59.208;18.216;2023-04-24T10:40:18;1.70;;;1.27;;
12681;SDS011;6405;59.208;18.216;2023-04-24T10:42:51;1.73;;;1.60;;
12681;SDS011;6405;59.208;18.216;2023-04-24T10:45:20;2.03;;;1.67;;
12681;SDS011;6405;59.208;18.216;2023-04-24T10:47:51;3.03;;;1.80;;
12681;SDS011;6405;59.208;18.216;2023-04-24T10:50:17;3.60;;;1.77;;
12681;SDS011;6405;59.208;18.216;2023-04-24T10:52:44;2.40;;;2.13;;
12681;SDS011;6405;59.208;18.216;2023-04-24T10:55:10;3.17;;;2.20;;
12681;SDS011;6405;59.208;18.216;2023-04-24T10:57:39;3.50;;;2.53;;
12681;SDS011;6405;59.208;18.216;2023-04-24T11:00:20;2.87;;;2.00;;
12681;SDS011;6405;59.208;18.216;2023-04-24T11:02:47;4.00;;;2.60;;
12681;SDS011;6405;59.208;18.216;2023-04-24T11:05:15;3.00;;;2.57;;
12681;SDS011;6405;59.208;18.216;2023-04-24T11:10:43;4.87;;;2.60;;
12681;SDS011;6405;59.208;18.216;2023-04-24T11:13:10;3.00;;;1.97;;
12681;SDS011;6405;59.208;18.216;2023-04-24T11:15:41;4.67;;;2.37;;
12681;SDS011;6405;59.208;18.216;2023-04-24T11:18:12;2.80;;;2.07;;
12681;SDS011;6405;59.208;18.216;2023-04-24T11:20:41;3.17;;;2.40;;
12681;SDS011;6405;59.208;18.216;2023-04-24T11:23:08;3.23;;;2.10;;
12681;SDS011;6405;59.208;18.216;2023-04-24T11:25:34;2.90;;;2.50;;
12681;SDS011;6405;59.208;18.216;2023-04-24T11:28:04;3.73;;;2.30;;
12681;SDS011;6405;59.208;18.216;2023-04-24T11:30:31;3.57;;;2.40;;
12681;SDS011;6405;59.208;18.216;2023-04-24T11:33:02;4.53;;;2.70;;
12681;SDS011;6405;59.208;18.216;2023-04-24T11:35:29;4.77;;;2.43;;
12681;SDS011;6405;59.208;18.216;2023-04-24T11:37:59;5.17;;;2.60;;
12681;SDS011;6405;59.208;18.216;2023-04-24T11:40:27;2.80;;;2.30;;
12681;SDS011;6405;59.208;18.216;2023-04-24T11:42:53;4.50;;;2.60;;
12681;SDS011;6405;59.208;18.216;2023-04-24T11:45:25;2.67;;;2.20;;
12681;SDS011;6405;59.208;18.216;2023-04-24T11:47:54;4.00;;;2.57;;
12681;SDS011;6405;59.208;18.216;2023-04-24T11:50:21;3.00;;;2.47;;
12681;SDS011;6405;59.208;18.216;2023-04-24T11:52:49;4.17;;;2.50;;
12681;SDS011;6405;59.208;18.216;2023-04-24T11:57:44;4.37;;;2.73;;
12681;SDS011;6405;59.208;18.216;2023-04-24T12:00:15;6.17;;;3.70;;
12681;SDS011;6405;59.208;18.216;2023-04-24T12:02:43;4.40;;;2.50;;
12681;SDS011;6405;59.208;18.216;2023-04-24T12:05:09;4.57;;;2.60;;
12681;SDS011;6405;59.208;18.216;2023-04-24T12:07:45;3.97;;;2.90;;
12681;SDS011;6405;59.208;18.216;2023-04-24T12:10:10;3.40;;;2.73;;
12681;SDS011;6405;59.208;18.216;2023-04-24T12:12:36;3.27;;;2.57;;
12681;SDS011;6405;59.208;18.216;2023-04-24T12:15:06;4.93;;;2.83;;
12681;SDS011;6405;59.208;18.216;2023-04-24T12:17:33;3.87;;;3.07;;
12681;SDS011;6405;59.208;18.216;2023-04-24T12:20:00;5.20;;;2.77;;
12681;SDS011;6405;59.208;18.216;2023-04-24T12:25:15;3.47;;;2.60;;
12681;SDS011;6405;59.208;18.216;2023-04-24T12:27:43;6.60;;;3.80;;
12681;SDS011;6405;59.208;18.216;2023-04-24T12:30:11;3.17;;;2.47;;
12681;SDS011;6405;59.208;18.216;2023-04-24T12:32:58;5.27;;;2.70;;
12681;SDS011;6405;59.208;18.216;2023-04-24T12:35:25;4.10;;;2.90;;
12681;SDS011;6405;59.208;18.216;2023-04-24T12:37:52;4.43;;;2.70;;
12681;SDS011;6405;59.208;18.216;2023-04-24T12:40:19;4.43;;;2.70;;
12681;SDS011;6405;59.208;18.216;2023-04-24T12:42:49;4.73;;;3.27;;
12681;SDS011;6405;59.208;18.216;2023-04-24T12:45:16;3.57;;;2.83;;
12681;SDS011;6405;59.208;18.216;2023-04-24T12:47:43;3.57;;;2.70;;
12681;SDS011;6405;59.208;18.216;2023-04-24T12:50:12;3.60;;;2.87;;
12681;SDS011;6405;59.208;18.216;2023-04-24T12:52:40;4.83;;;3.23;;
12681;SDS011;6405;59.208;18.216;2023-04-24T12:55:06;3.83;;;3.00;;
12681;SDS011;6405;59.208;18.216;2023-04-24T12:57:33;4.10;;;3.13;;
12681;SDS011;6405;59.208;18.216;2023-04-24T13:00:00;4.37;;;2.93;;
12681;SDS011;6405;59.208;18.216;2023-04-24T13:02:27;4.33;;;3.27;;
12681;SDS011;6405;59.208;18.216;2023-04-24T13:04:56;6.50;;;3.13;;
12681;SDS011;6405;59.208;18.216;2023-04-24T13:07:23;3.67;;;2.57;;
12681;SDS011;6405;59.208;18.216;2023-04-24T13:09:49;6.00;;;2.67;;
12681;SDS011;6405;59.208;18.216;2023-04-24T13:12:16;4.83;;;2.40;;
12681;SDS011;6405;59.208;18.216;2023-04-24T13:14:42;4.60;;;2.80;;
12681;SDS011;6405;59.208;18.216;2023-04-24T13:17:07;4.10;;;2.47;;
12681;SDS011;6405;59.208;18.216;2023-04-24T13:19:37;3.40;;;2.60;;
12681;SDS011;6405;59.208;18.216;2023-04-24T13:22:04;4.83;;;3.07;;
12681;SDS011;6405;59.208;18.216;2023-04-24T13:24:31;4.00;;;2.40;;
12681;SDS011;6405;59.208;18.216;2023-04-24T13:26:57;2.73;;;2.40;;
12681;SDS011;6405;59.208;18.216;2023-04-24T13:29:23;3.83;;;2.40;;
12681;SDS011;6405;59.208;18.216;2023-04-24T13:31:52;2.80;;;2.40;;
12681;SDS011;6405;59.208;18.216;2023-04-24T13:34:22;4.77;;;2.93;;
12681;SDS011;6405;59.208;18.216;2023-04-24T13:36:49;5.40;;;2.47;;
12681;SDS011;6405;59.208;18.216;2023-04-24T13:39:19;4.00;;;2.33;;
12681;SDS011;6405;59.208;18.216;2023-04-24T13:41:45;3.70;;;2.27;;
12681;SDS011;6405;59.208;18.216;2023-04-24T13:44:13;5.10;;;2.53;;
12681;SDS011;6405;59.208;18.216;2023-04-24T13:46:39;4.93;;;2.57;;
12681;SDS011;6405;59.208;18.216;2023-04-24T13:49:05;3.20;;;2.20;;
12681;SDS011;6405;59.208;18.216;2023-04-24T13:51:32;4.10;;;2.30;;
12681;SDS011;6405;59.208;18.216;2023-04-24T13:53:57;4.77;;;2.17;;
12681;SDS011;6405;59.208;18.216;2023-04-24T13:56:24;3.07;;;2.13;;
12681;SDS011;6405;59.208;18.216;2023-04-24T13:58:51;4.17;;;2.13;;
12681;SDS011;6405;59.208;18.216;2023-04-24T14:01:18;3.20;;;2.03;;
12681;SDS011;6405;59.208;18.216;2023-04-24T14:03:45;4.47;;;2.30;;
12681;SDS011;6405;59.208;18.216;2023-04-24T14:06:11;4.00;;;2.40;;
12681;SDS011;6405;59.208;18.216;2023-04-24T14:08:37;2.43;;;2.13;;
12681;SDS011;6405;59.208;18.216;2023-04-24T14:11:02;3.20;;;2.33;;
12681;SDS011;6405;59.208;18.216;2023-04-24T14:13:28;4.33;;;2.57;;
12681;SDS011;6405;59.208;18.216;2023-04-24T14:15:54;3.27;;;2.50;;
12681;SDS011;6405;59.208;18.216;2023-04-24T14:18:20;3.13;;;1.90;;
12681;SDS011;6405;59.208;18.216;2023-04-24T14:20:45;4.50;;;2.13;;
12681;SDS011;6405;59.208;18.216;2023-04-24T14:23:11;3.53;;;1.97;;
12681;SDS011;6405;59.208;18.216;2023-04-24T14:25:37;6.03;;;2.20;;
12681;SDS011;6405;59.208;18.216;2023-04-24T14:28:02;2.93;;;2.00;;
12681;SDS011;6405;59.208;18.216;2023-04-24T14:30:28;2.53;;;1.73;;
12681;SDS011;6405;59.208;18.216;2023-04-24T14:32:54;2.73;;;1.63;;
12681;SDS011;6405;59.208;18.216;2023-04-24T14:35:20;2.80;;;1.97;;
12681;SDS011;6405;59.208;18.216;2023-04-24T14:37:45;2.90;;;1.77;;
12681;SDS011;6405;59.208;18.216;2023-04-24T14:40:13;3.33;;;1.97;;
12681;SDS011;6405;59.208;18.216;2023-04-24T14:42:38;4.00;;;1.80;;
12681;SDS011;6405;59.208;18.216;2023-04-24T14:45:05;4.17;;;1.80;;
12681;SDS011;6405;59.208;18.216;2023-04-24T14:47:31;4.93;;;2.00;;
12681;SDS011;6405;59.208;18.216;2023-04-24T14:49:58;2.97;;;2.10;;
12681;SDS011;6405;59.208;18.216;2023-04-24T14:52:23;2.67;;;1.90;;